createdAt,value
2022-10-21T00:04:47.132Z,5.30
2022-10-21T00:09:38.907Z,5.00
2022-10-21T00:14:30.628Z,4.47
2022-10-21T00:19:22.601Z,4.28
2022-10-21T00:24:14.233Z,4.70
2022-10-21T00:29:05.864Z,4.90
2022-10-21T00:33:57.533Z,3.97
2022-10-21T00:38:49.456Z,3.65
2022-10-21T00:44:01.687Z,4.47
2022-10-21T00:48:57.781Z,5.78
2022-10-21T00:53:50.523Z,5.60
2022-10-21T00:58:42.260Z,6.32
2022-10-21T01:03:35.210Z,5.50
2022-10-21T01:08:28.638Z,7.80
2022-10-21T01:13:38.913Z,9.75
2022-10-21T01:18:31.015Z,10.73
2022-10-21T01:23:31.908Z,7.75
2022-10-21T01:28:38.511Z,8.60
2022-10-21T01:33:54.616Z,9.80
2022-10-21T01:39:11.165Z,10.23
2022-10-21T01:44:12.700Z,11.60
2022-10-21T01:49:27.198Z,10.20
2022-10-21T01:54:30.898Z,10.57
2022-10-21T01:59:27.853Z,9.57
2022-10-21T02:04:20.631Z,8.82
2022-10-21T02:09:12.787Z,10.07
2022-10-21T02:14:29.247Z,10.07
2022-10-21T02:19:21.839Z,9.23
2022-10-21T02:24:13.658Z,10.55
2022-10-21T02:29:05.430Z,11.10
2022-10-21T02:34:07.894Z,10.65
2022-10-21T02:39:07.448Z,10.85
2022-10-21T02:44:01.906Z,10.45
2022-10-21T02:48:54.233Z,11.13
2022-10-21T02:53:45.835Z,11.00
2022-10-21T02:58:37.525Z,10.63
2022-10-21T03:03:29.982Z,9.48
2022-10-21T03:08:21.701Z,9.13
2022-10-21T03:13:13.365Z,8.98
2022-10-21T03:18:05.081Z,8.15
2022-10-21T03:22:56.714Z,7.40
2022-10-21T03:27:50.589Z,8.38
2022-10-21T03:32:42.324Z,8.85
2022-10-21T03:37:33.942Z,9.63
2022-10-21T03:42:25.645Z,10.05
2022-10-21T03:47:17.299Z,8.75
2022-10-21T03:52:08.935Z,7.85
2022-10-21T03:57:00.704Z,7.93
2022-10-21T04:01:52.698Z,7.85
2022-10-21T04:06:44.457Z,7.45
2022-10-21T04:11:36.136Z,6.25
2022-10-21T04:16:27.971Z,5.75
2022-10-21T04:21:19.889Z,6.15
2022-10-21T04:26:12.185Z,6.00
2022-10-21T04:31:03.959Z,5.45
2022-10-21T04:35:56.079Z,6.10
2022-10-21T04:40:47.709Z,5.68
2022-10-21T04:45:40.104Z,7.43
2022-10-21T04:50:32.608Z,8.32
2022-10-21T04:55:24.321Z,8.93
2022-10-21T05:00:15.963Z,10.23
2022-10-21T05:05:08.124Z,9.60
2022-10-21T05:09:59.762Z,10.27
2022-10-21T05:14:51.477Z,11.25
2022-10-21T05:19:43.081Z,12.55
2022-10-21T05:24:34.787Z,10.80
2022-10-21T05:29:26.454Z,9.40
2022-10-21T05:34:18.195Z,10.48
2022-10-21T05:39:11.534Z,11.95
2022-10-21T05:44:03.527Z,11.70
2022-10-21T05:48:55.139Z,11.10
2022-10-21T05:53:46.901Z,11.73
2022-10-21T05:58:38.563Z,11.32
2022-10-21T06:03:33.070Z,11.50
2022-10-21T06:08:25.088Z,11.95
2022-10-21T06:13:16.646Z,12.77
2022-10-21T06:18:08.284Z,12.25
2022-10-21T06:23:00.835Z,12.85
2022-10-21T06:27:53.308Z,12.75
2022-10-21T06:32:45.121Z,12.98
2022-10-21T06:37:37.022Z,13.00
2022-10-21T06:42:28.837Z,13.15
2022-10-21T06:47:20.406Z,11.95
2022-10-21T06:52:12.300Z,13.13
2022-10-21T06:57:04.478Z,11.85
2022-10-21T07:02:00.221Z,13.30
2022-10-21T07:06:52.836Z,12.95
2022-10-21T07:11:44.769Z,13.73
2022-10-21T07:16:37.091Z,14.73
2022-10-21T07:21:30.771Z,14.65
2022-10-21T07:26:23.824Z,14.90
2022-10-21T07:31:19.802Z,15.60
2022-10-21T07:36:15.907Z,16.30
2022-10-21T07:41:08.135Z,14.93
2022-10-21T07:46:03.179Z,15.55
2022-10-21T07:51:04.575Z,18.60
2022-10-21T07:56:08.606Z,17.20
2022-10-21T08:01:01.997Z,18.45
2022-10-21T08:05:54.719Z,16.30
2022-10-21T08:10:46.373Z,16.98
2022-10-21T08:15:42.648Z,18.20
2022-10-21T08:20:34.347Z,17.58
2022-10-21T08:25:29.987Z,18.20
2022-10-21T08:30:21.929Z,17.52
2022-10-21T08:35:13.509Z,17.10
2022-10-21T08:40:05.797Z,16.80
2022-10-21T08:45:07.046Z,16.92
2022-10-21T08:50:04.350Z,16.65
2022-10-21T08:55:03.801Z,16.98
2022-10-21T08:59:55.821Z,16.08
2022-10-21T09:05:17.110Z,16.50
2022-10-21T09:10:22.647Z,16.23
2022-10-21T09:15:40.347Z,15.13
2022-10-21T09:21:03.357Z,15.73
2022-10-21T09:26:01.180Z,14.10
2022-10-21T09:30:54.276Z,14.93
2022-10-21T09:35:59.256Z,13.75
2022-10-21T09:40:53.044Z,13.48
2022-10-21T09:45:46.318Z,13.82
2022-10-21T09:50:38.006Z,12.48
2022-10-21T09:55:31.759Z,11.45
2022-10-21T10:00:42.951Z,9.93
2022-10-21T10:05:35.901Z,8.68
2022-10-21T10:10:33.635Z,8.77
2022-10-21T10:15:39.063Z,9.25
2022-10-21T10:20:30.687Z,8.25
2022-10-21T10:25:24.371Z,7.55
2022-10-21T10:30:17.141Z,7.40
2022-10-21T10:35:21.726Z,7.30
2022-10-21T10:40:26.125Z,5.05
2022-10-21T10:45:22.789Z,3.50
2022-10-21T10:50:51.707Z,3.00
2022-10-21T11:00:43.145Z,4.57
2022-10-21T11:05:38.596Z,1.98
2022-10-21T11:10:35.496Z,2.30
2022-10-21T11:15:50.116Z,1.50
2022-10-21T11:21:12.065Z,1.42
2022-10-21T11:26:12.353Z,1.33
2022-10-21T11:31:20.752Z,1.30
2022-10-21T11:36:17.754Z,1.00
2022-10-21T11:41:28.395Z,0.90
2022-10-21T11:46:38.520Z,1.00
2022-10-21T11:52:03.572Z,1.00
2022-10-21T11:57:14.698Z,0.77
2022-10-21T12:02:25.602Z,1.10
2022-10-21T12:07:40.834Z,0.80
2022-10-21T12:12:38.003Z,0.77
2022-10-21T12:17:34.635Z,0.98
2022-10-21T12:22:29.354Z,0.77
2022-10-21T12:27:38.678Z,0.80
2022-10-21T12:33:06.768Z,0.95
2022-10-21T12:37:59.841Z,0.90
2022-10-21T12:43:28.847Z,0.70
2022-10-21T12:48:39.991Z,0.95
2022-10-21T12:53:40.223Z,0.90
2022-10-21T12:58:39.949Z,0.70
2022-10-21T13:03:55.115Z,0.50
2022-10-21T13:08:49.887Z,0.40
2022-10-21T13:13:46.291Z,0.47
2022-10-21T13:18:56.666Z,0.40
2022-10-21T13:23:52.084Z,0.68
2022-10-21T13:29:07.570Z,0.70
2022-10-21T13:34:01.013Z,0.80
2022-10-21T13:38:55.705Z,0.80
2022-10-21T13:44:00.081Z,0.60
2022-10-21T13:48:51.937Z,0.70
2022-10-21T13:53:46.252Z,0.60
2022-10-21T13:58:40.368Z,1.00
2022-10-21T14:03:32.229Z,0.65
2022-10-21T14:08:28.765Z,0.60
2022-10-21T14:13:25.413Z,0.55
2022-10-21T14:18:33.524Z,0.80
2022-10-21T14:23:29.727Z,0.60
2022-10-21T14:28:22.498Z,1.05
2022-10-21T14:33:28.581Z,0.80
2022-10-21T14:38:29.674Z,0.88
2022-10-21T14:43:31.147Z,0.63
2022-10-21T14:48:33.493Z,0.73
2022-10-21T14:53:26.211Z,0.40
2022-10-21T14:58:23.739Z,0.68
2022-10-21T15:08:19.240Z,0.50
2022-10-21T15:13:19.440Z,0.52
2022-10-21T15:18:43.915Z,0.50
2022-10-21T15:23:37.729Z,0.40
2022-10-21T15:28:33.261Z,0.60
2022-10-21T15:33:25.471Z,0.80
2022-10-21T15:38:17.157Z,0.50
2022-10-21T15:43:10.724Z,0.50
2022-10-21T15:48:02.338Z,0.50
2022-10-21T15:57:50.889Z,0.65
2022-10-21T16:02:42.489Z,0.50
2022-10-21T16:07:34.347Z,0.38
2022-10-21T16:12:26.035Z,0.50
2022-10-21T16:17:18.028Z,0.50
2022-10-21T16:22:22.582Z,0.77
2022-10-21T16:27:26.435Z,1.05
2022-10-21T16:32:23.240Z,0.50
2022-10-21T16:37:27.439Z,0.60
2022-10-21T16:42:20.415Z,0.50
2022-10-21T16:47:18.188Z,0.40
2022-10-21T16:52:13.154Z,0.40
2022-10-21T16:57:06.966Z,0.50
2022-10-21T17:02:00.030Z,1.27
2022-10-21T17:06:51.882Z,0.50
2022-10-21T17:11:43.822Z,0.75
2022-10-21T17:16:35.504Z,0.60
2022-10-21T17:21:32.249Z,0.90
2022-10-21T17:26:24.247Z,0.82
2022-10-21T17:31:21.560Z,0.60
2022-10-21T17:36:13.897Z,0.80
2022-10-21T17:41:05.716Z,1.45
2022-10-21T17:45:57.584Z,1.30
2022-10-21T17:50:57.298Z,1.10
2022-10-21T17:56:00.552Z,1.63
2022-10-21T18:00:52.521Z,1.58
2022-10-21T18:05:46.461Z,1.58
2022-10-21T18:10:38.102Z,1.60
2022-10-21T18:15:31.479Z,1.80
2022-10-21T18:20:24.212Z,1.30
2022-10-21T18:25:15.935Z,1.15
2022-10-21T18:30:08.390Z,0.80
2022-10-21T18:35:00.102Z,0.70
2022-10-21T18:39:55.342Z,0.80
2022-10-21T18:44:51.393Z,0.93
2022-10-21T18:49:43.024Z,0.85
2022-10-21T18:54:35.028Z,0.85
2022-10-21T18:59:26.654Z,0.80
2022-10-21T19:04:18.361Z,1.00
2022-10-21T19:09:22.018Z,1.00
2022-10-21T19:14:15.241Z,0.60
2022-10-21T19:19:07.522Z,0.77
2022-10-21T19:24:01.517Z,0.90
2022-10-21T19:29:00.169Z,0.90
2022-10-21T19:33:51.988Z,0.80
2022-10-21T19:38:44.630Z,0.77
2022-10-21T19:43:37.152Z,0.50
2022-10-21T19:48:29.102Z,0.50
2022-10-21T19:53:20.769Z,0.40
2022-10-21T19:58:12.385Z,0.40
2022-10-21T20:03:04.423Z,0.40
2022-10-21T20:07:56.124Z,0.40
2022-10-21T20:12:47.797Z,0.50
2022-10-21T20:17:39.494Z,0.50
2022-10-21T20:22:31.088Z,0.40
2022-10-21T20:27:22.748Z,0.60
2022-10-21T20:32:14.335Z,0.50
2022-10-21T20:37:06.321Z,0.40
2022-10-21T20:41:57.936Z,0.50
2022-10-21T20:46:49.643Z,0.55
2022-10-21T20:51:42.531Z,0.47
2022-10-21T20:56:37.266Z,0.43
2022-10-21T21:01:32.414Z,0.60
2022-10-21T21:06:25.632Z,0.50
2022-10-21T21:11:17.701Z,0.50
2022-10-21T21:16:14.992Z,0.60
2022-10-21T21:21:13.077Z,1.30
2022-10-21T21:26:11.080Z,1.23
2022-10-21T21:31:04.137Z,1.42
2022-10-21T21:35:59.171Z,1.20
2022-10-21T21:40:50.844Z,1.20
2022-10-21T21:45:48.693Z,0.98
2022-10-21T21:55:32.983Z,1.15
2022-10-21T22:00:25.029Z,1.20
2022-10-21T22:05:16.789Z,1.08
2022-10-21T22:10:08.982Z,0.80
2022-10-21T22:15:00.726Z,1.10
2022-10-21T22:19:53.998Z,0.75
2022-10-21T22:24:46.240Z,0.98
2022-10-21T22:29:37.929Z,0.60
2022-10-21T22:34:29.648Z,0.55
2022-10-21T22:39:21.450Z,0.50
2022-10-21T22:44:13.261Z,0.40
2022-10-21T22:49:05.375Z,0.30
2022-10-21T22:53:57.363Z,0.20
2022-10-21T22:58:48.975Z,0.20
2022-10-21T23:03:40.767Z,0.20
2022-10-21T23:08:32.610Z,0.20
2022-10-21T23:13:24.836Z,0.20
2022-10-21T23:18:17.615Z,0.30
2022-10-21T23:23:10.343Z,0.20
2022-10-21T23:28:02.037Z,0.20
2022-10-21T23:32:54.132Z,0.52
2022-10-21T23:37:45.964Z,0.35
2022-10-21T23:42:41.969Z,0.40
2022-10-21T23:47:35.719Z,0.30
2022-10-21T23:52:27.315Z,0.40
2022-10-21T23:57:19.082Z,0.43
